Edward Cornwallis — CGJV — position and weather

sailwx.info

Track history (hours):
 
Tides and Currents Weather Stations Pressure Air Temp Water Temp Dewpoint Dewpoint Depression Visibility Wind Speed Wind Dir Waves Ship Positions

Edward Cornwallis

Last reported at 2016-Jan-28 05:31 UTC. Time now 2016-Feb-06 09:15 UTC.
Position N 47°18' W 052°40'.
Warning: this ship's position is 9 days out of date.

Length 83 m; draft 6 m.

Type: SAR. MMSI: 316020000.

Date/timePositionNaut miles runAvg speedWind from/ knotsBaromVisibWave heightAir tempDewpointWater temp
2016-Jan-28 05:31N 47°18' W 052°40'4 4.0
2016-Jan-28 04:33N 47°21' W 052°38'5 4.8
2016-Jan-28 03:33N 47°26' W 052°36'5 4.9
2016-Jan-28 02:34N 47°31' W 052°35'3 3.0
2016-Jan-28 01:32N 47°34' W 052°36'5 4.4
2016-Jan-28 00:30N 47°33' W 052°42'0 0.0
2016-Jan-27 23:26N 47°33' W 052°42'0 0.0
2016-Jan-27 22:29N 47°33' W 052°42'0 0.0
2016-Jan-27 21:32N 47°33' W 052°42'0 0.0
2016-Jan-27 20:26N 47°33' W 052°42'0 0.0
2016-Jan-27 19:26N 47°33' W 052°42'0 0.0
2016-Jan-27 18:26N 47°33' W 052°42'0 0.0
2016-Jan-27 17:32N 47°33' W 052°42'0 0.0
2016-Jan-27 16:32N 47°33' W 052°42'0 0.0
2016-Jan-27 15:29N 47°33' W 052°42'0 0.0
2016-Jan-27 12:29N 47°33' W 052°42'0 0.0
2016-Jan-27 11:32N 47°33' W 052°42'0 0.0
2016-Jan-27 10:32N 47°33' W 052°42'0 0.0
2016-Jan-27 09:32N 47°33' W 052°42'0 0.0
2016-Jan-27 08:32N 47°33' W 052°42'0 0.0
2016-Jan-27 07:32N 47°33' W 052°42'0 0.0
2016-Jan-27 06:26N 47°33' W 052°42'0 0.0
2016-Jan-27 05:32N 47°33' W 052°42'0 0.0
2016-Jan-27 04:29N 47°33' W 052°42'0 0.0
2016-Jan-27 03:32N 47°33' W 052°42'0 0.0
2016-Jan-27 02:32N 47°33' W 052°42'0 0.0
2016-Jan-27 01:32N 47°33' W 052°42'0 0.0
2016-Jan-27 00:32N 47°33' W 052°42'0 0.0
2016-Jan-26 23:29N 47°33' W 052°42'0 0.0
2016-Jan-26 22:32N 47°33' W 052°42'0 0.0
2016-Jan-26 21:29N 47°33' W 052°42'0 0.0
2016-Jan-26 20:32N 47°33' W 052°42'0 0.0
2016-Jan-26 19:26N 47°33' W 052°42'0 0.0
2016-Jan-26 18:32N 47°33' W 052°42'0 0.0
2016-Jan-26 17:26N 47°33' W 052°42'0 0.0
2016-Jan-26 16:26N 47°33' W 052°42'0 0.0
2016-Jan-26 15:32N 47°33' W 052°42'0 0.0
2016-Jan-26 14:32N 47°33' W 052°42'0 0.0
2016-Jan-26 13:29N 47°33' W 052°42'0 0.0
2016-Jan-26 12:32N 47°33' W 052°42'0 0.0
2016-Jan-26 11:26N 47°33' W 052°42'0 0.0
2016-Jan-26 10:32N 47°33' W 052°42'0 0.0
2016-Jan-26 09:29N 47°33' W 052°42'0 0.0
2016-Jan-26 08:26N 47°33' W 052°42'0 0.0
2016-Jan-26 07:32N 47°33' W 052°42'0 0.0
2016-Jan-26 06:32N 47°33' W 052°42'0 0.0
2016-Jan-26 05:26N 47°33' W 052°42'0 0.0
2016-Jan-26 04:29N 47°33' W 052°42'0 0.0
2016-Jan-26 03:23N 47°33' W 052°42'0 0.0
2016-Jan-26 02:32N 47°33' W 052°42'0 0.0
2016-Jan-26 01:29N 47°33' W 052°42'0 0.0
2016-Jan-26 00:32N 47°33' W 052°42'0 0.0
2016-Jan-25 23:32N 47°33' W 052°42'0 0.0
2016-Jan-25 22:32N 47°33' W 052°42'0 0.0
2016-Jan-25 21:32N 47°33' W 052°42'0 0.0
2016-Jan-25 20:26N 47°33' W 052°42'0 0.0
2016-Jan-25 19:26N 47°33' W 052°42'1 1.3
2016-Jan-25 18:32N 47°34' W 052°41'15 0.6
2016-Jan-24 17:29N 47°32' W 053°02'3 3.4
2016-Jan-24 16:33N 47°35' W 052°59'18 7.2
2016-Jan-24 14:05N 47°45' W 052°38'813.4
2016-Jan-24 13:32N 47°38' W 052°35'11 5.4
2016-Jan-24 11:32N 47°28' W 052°39'6 6.3
2016-Jan-24 10:31N 47°34' W 052°42'0 0.1
2016-Jan-24 09:28N 47°33' W 052°42'0 0.0
2016-Jan-24 08:31N 47°33' W 052°42'0 0.0
2016-Jan-24 07:16N 47°33' W 052°42'0 0.0
2016-Jan-24 06:28N 47°33' W 052°42'0 0.0
2016-Jan-24 05:28N 47°33' W 052°42'0 0.0
2016-Jan-24 04:28N 47°33' W 052°42'0 0.0
2016-Jan-24 03:28N 47°33' W 052°42'0 0.0
2016-Jan-24 02:28N 47°33' W 052°42'0 0.0
2016-Jan-24 01:25N 47°33' W 052°42'0 0.0
2016-Jan-24 00:28N 47°33' W 052°42'0 0.0
2016-Jan-23 23:28N 47°33' W 052°42'0 0.0
2016-Jan-23 22:32N 47°33' W 052°42'8 7.7
2016-Jan-23 21:32N 47°28' W 052°35'  
Track history (hours):
 
Tides and Currents Weather Stations Pressure Air Temp Water Temp Dewpoint Dewpoint Depression Visibility Wind Speed Wind Dir Waves Ship Positions

Edward Cornwallis

Last reported at 2016-Jan-28 05:31 UTC. Time now 2016-Feb-06 09:15 UTC.
Position N 47°18' W 052°40'.
Warning: this ship's position is 9 days out of date.

Length 83 m; draft 6 m.

Type: SAR. MMSI: 316020000.

Date/timePositionNaut miles runAvg speedWind from/ knotsBaromVisibWave heightAir tempDewpointWater temp
2016-Jan-28 05:31N 47°18' W 052°40'4 4.0
2016-Jan-28 04:33N 47°21' W 052°38'5 4.8
2016-Jan-28 03:33N 47°26' W 052°36'5 4.9
2016-Jan-28 02:34N 47°31' W 052°35'3 3.0
2016-Jan-28 01:32N 47°34' W 052°36'5 4.4
2016-Jan-28 00:30N 47°33' W 052°42'0 0.0
2016-Jan-27 23:26N 47°33' W 052°42'0 0.0
2016-Jan-27 22:29N 47°33' W 052°42'0 0.0
2016-Jan-27 21:32N 47°33' W 052°42'0 0.0
2016-Jan-27 20:26N 47°33' W 052°42'0 0.0
2016-Jan-27 19:26N 47°33' W 052°42'0 0.0
2016-Jan-27 18:26N 47°33' W 052°42'0 0.0
2016-Jan-27 17:32N 47°33' W 052°42'0 0.0
2016-Jan-27 16:32N 47°33' W 052°42'0 0.0
2016-Jan-27 15:29N 47°33' W 052°42'0 0.0
2016-Jan-27 12:29N 47°33' W 052°42'0 0.0
2016-Jan-27 11:32N 47°33' W 052°42'0 0.0
2016-Jan-27 10:32N 47°33' W 052°42'0 0.0
2016-Jan-27 09:32N 47°33' W 052°42'0 0.0
2016-Jan-27 08:32N 47°33' W 052°42'0 0.0
2016-Jan-27 07:32N 47°33' W 052°42'0 0.0
2016-Jan-27 06:26N 47°33' W 052°42'0 0.0
2016-Jan-27 05:32N 47°33' W 052°42'0 0.0
2016-Jan-27 04:29N 47°33' W 052°42'0 0.0
2016-Jan-27 03:32N 47°33' W 052°42'0 0.0
2016-Jan-27 02:32N 47°33' W 052°42'0 0.0
2016-Jan-27 01:32N 47°33' W 052°42'0 0.0
2016-Jan-27 00:32N 47°33' W 052°42'0 0.0
2016-Jan-26 23:29N 47°33' W 052°42'0 0.0
2016-Jan-26 22:32N 47°33' W 052°42'0 0.0
2016-Jan-26 21:29N 47°33' W 052°42'0 0.0
2016-Jan-26 20:32N 47°33' W 052°42'0 0.0
2016-Jan-26 19:26N 47°33' W 052°42'0 0.0
2016-Jan-26 18:32N 47°33' W 052°42'0 0.0
2016-Jan-26 17:26N 47°33' W 052°42'0 0.0
2016-Jan-26 16:26N 47°33' W 052°42'0 0.0
2016-Jan-26 15:32N 47°33' W 052°42'0 0.0
2016-Jan-26 14:32N 47°33' W 052°42'0 0.0
2016-Jan-26 13:29N 47°33' W 052°42'0 0.0
2016-Jan-26 12:32N 47°33' W 052°42'0 0.0
2016-Jan-26 11:26N 47°33' W 052°42'0 0.0
2016-Jan-26 10:32N 47°33' W 052°42'0 0.0
2016-Jan-26 09:29N 47°33' W 052°42'0 0.0
2016-Jan-26 08:26N 47°33' W 052°42'0 0.0
2016-Jan-26 07:32N 47°33' W 052°42'0 0.0
2016-Jan-26 06:32N 47°33' W 052°42'0 0.0
2016-Jan-26 05:26N 47°33' W 052°42'0 0.0
2016-Jan-26 04:29N 47°33' W 052°42'0 0.0
2016-Jan-26 03:23N 47°33' W 052°42'0 0.0
2016-Jan-26 02:32N 47°33' W 052°42'0 0.0
2016-Jan-26 01:29N 47°33' W 052°42'0 0.0
2016-Jan-26 00:32N 47°33' W 052°42'0 0.0
2016-Jan-25 23:32N 47°33' W 052°42'0 0.0
2016-Jan-25 22:32N 47°33' W 052°42'0 0.0
2016-Jan-25 21:32N 47°33' W 052°42'0 0.0
2016-Jan-25 20:26N 47°33' W 052°42'0 0.0
2016-Jan-25 19:26N 47°33' W 052°42'1 1.3
2016-Jan-25 18:32N 47°34' W 052°41'15 0.6
2016-Jan-24 17:29N 47°32' W 053°02'3 3.4
2016-Jan-24 16:33N 47°35' W 052°59'18 7.2
2016-Jan-24 14:05N 47°45' W 052°38'813.4
2016-Jan-24 13:32N 47°38' W 052°35'11 5.4
2016-Jan-24 11:32N 47°28' W 052°39'6 6.3
2016-Jan-24 10:31N 47°34' W 052°42'0 0.1
2016-Jan-24 09:28N 47°33' W 052°42'0 0.0
2016-Jan-24 08:31N 47°33' W 052°42'0 0.0
2016-Jan-24 07:16N 47°33' W 052°42'0 0.0
2016-Jan-24 06:28N 47°33' W 052°42'0 0.0
2016-Jan-24 05:28N 47°33' W 052°42'0 0.0
2016-Jan-24 04:28N 47°33' W 052°42'0 0.0
2016-Jan-24 03:28N 47°33' W 052°42'0 0.0
2016-Jan-24 02:28N 47°33' W 052°42'0 0.0
2016-Jan-24 01:25N 47°33' W 052°42'0 0.0
2016-Jan-24 00:28N 47°33' W 052°42'0 0.0
2016-Jan-23 23:28N 47°33' W 052°42'0 0.0
2016-Jan-23 22:32N 47°33' W 052°42'8 7.7
2016-Jan-23 21:32N 47°28' W 052°35'  

Dump ship's entire track history